Time;durP1;ratioP1;P1;durP2;ratioP2;P2;SDS_P1;SDS_P2;PMS_P1;PMS_P2;Temp;Humidity;BMP_temperature;BMP_pressure;BME280_temperature;BME280_humidity;BME280_pressure;Samples;Min_cycle;Max_cycle;Signal;HPM_P1;HPM_P2
2021/10/09 00:01:51;;;;;;;38.92;35.80;;;9.10;95.60;;;;;;5049919;28;20258;-71
2021/10/09 00:04:18;;;;;;;41.20;37.50;;;9.10;95.50;;;;;;5051317;28;20230;-72
2021/10/09 00:06:45;;;;;;;40.10;36.60;;;9.10;95.50;;;;;;5039793;28;20224;-71
2021/10/09 00:09:13;;;;;;;38.90;35.50;;;9.00;95.40;;;;;;5051018;28;20189;-71
2021/10/09 00:11:40;;;;;;;38.50;34.97;;;9.00;95.70;;;;;;5048991;28;20492;-71
2021/10/09 00:14:09;;;;;;;39.28;35.65;;;9.00;95.70;;;;;;5050863;28;20698;-71
2021/10/09 00:16:37;;;;;;;40.13;36.65;;;8.90;95.60;;;;;;5039259;28;20193;-71
2021/10/09 00:19:04;;;;;;;41.75;38.15;;;8.90;95.40;;;;;;5051199;28;20673;-71
2021/10/09 00:21:32;;;;;;;40.95;37.13;;;8.90;95.60;;;;;;5039782;28;20223;-71
2021/10/09 00:24:00;;;;;;;41.95;38.35;;;8.90;95.70;;;;;;5049727;28;20193;-71
2021/10/09 00:26:28;;;;;;;43.92;40.20;;;8.90;96.20;;;;;;5036356;28;20239;-71
2021/10/09 00:28:55;;;;;;;40.60;37.05;;;8.80;96.30;;;;;;5050797;28;20200;-71
2021/10/09 00:31:22;;;;;;;38.63;35.42;;;8.80;95.90;;;;;;5048387;28;20240;-71
2021/10/09 00:33:49;;;;;;;39.20;35.92;;;8.70;96.30;;;;;;5050859;28;20196;-71
2021/10/09 00:36:16;;;;;;;40.13;36.28;;;8.70;96.10;;;;;;5036712;28;20291;-71
2021/10/09 00:38:43;;;;;;;41.03;37.33;;;8.70;95.80;;;;;;5050115;28;20628;-71
2021/10/09 00:41:10;;;;;;;40.63;37.25;;;8.70;95.60;;;;;;5041090;28;20213;-71
2021/10/09 00:43:38;;;;;;;40.67;37.17;;;8.70;95.60;;;;;;5047397;28;20984;-71
2021/10/09 00:46:06;;;;;;;41.35;37.65;;;8.60;95.50;;;;;;5040000;28;20571;-71
2021/10/09 00:48:34;;;;;;;41.08;37.38;;;8.60;95.40;;;;;;5050372;28;20227;-71
2021/10/09 00:51:01;;;;;;;55.83;39.05;;;8.50;96.10;;;;;;5042462;28;20775;-71
2021/10/09 00:53:30;;;;;;;42.60;38.60;;;8.50;96.30;;;;;;5039194;28;20189;-71
2021/10/09 00:55:57;;;;;;;42.40;38.55;;;8.50;96.40;;;;;;5044113;28;20574;-71
2021/10/09 00:58:25;;;;;;;41.25;37.20;;;8.50;95.80;;;;;;5030927;28;20224;-71
2021/10/09 01:00:53;;;;;;;40.58;37.25;;;8.50;95.80;;;;;;5039710;28;20223;-72
2021/10/09 01:03:21;;;;;;;42.00;38.13;;;8.50;95.50;;;;;;5049676;28;20195;-71
2021/10/09 01:05:48;;;;;;;39.75;36.33;;;8.40;95.70;;;;;;5042483;28;20185;-71
2021/10/09 01:08:15;;;;;;;39.97;36.03;;;8.40;95.40;;;;;;5049696;28;20223;-71
2021/10/09 01:10:42;;;;;;;37.95;34.60;;;8.40;95.40;;;;;;5048460;28;20971;-71
2021/10/09 01:13:09;;;;;;;40.88;37.33;;;8.40;95.60;;;;;;5049488;28;20200;-71
2021/10/09 01:15:36;;;;;;;40.15;36.65;;;8.30;95.40;;;;;;5048469;28;20202;-71
2021/10/09 01:18:09;;;;;;;42.00;38.40;;;8.30;96.00;;;;;;5047413;28;20189;-71
2021/10/09 01:20:52;;;;;;;42.80;38.90;;;8.30;96.70;;;;;;5048275;28;20255;-71
2021/10/09 01:23:19;;;;;;;41.20;37.70;;;8.30;96.90;;;;;;5042416;28;20717;-71
2021/10/09 01:25:47;;;;;;;39.75;36.22;;;8.30;97.10;;;;;;5047240;28;20532;-71
2021/10/09 01:28:14;;;;;;;39.50;36.20;;;8.20;96.50;;;;;;5049397;28;20227;-71
2021/10/09 01:30:41;;;;;;;42.17;38.17;;;8.20;96.20;;;;;;5044115;28;20754;-71
2021/10/09 01:33:08;;;;;;;42.17;38.15;;;8.20;96.00;;;;;;5047141;28;20777;-71
2021/10/09 01:35:47;;;;;;;61.13;39.28;;;8.20;95.80;;;;;;5040751;28;20229;-71
2021/10/09 01:38:15;;;;;;;41.67;38.00;;;8.10;95.90;;;;;;5048473;28;20199;-71
2021/10/09 01:40:42;;;;;;;40.47;36.83;;;8.00;95.80;;;;;;5047476;28;20222;-71
2021/10/09 01:43:10;;;;;;;41.03;37.40;;;8.00;96.00;;;;;;5048768;28;20278;-71
2021/10/09 01:45:41;;;;;;;40.45;36.75;;;8.00;95.80;;;;;;5034712;28;20746;-71
2021/10/09 01:48:08;;;;;;;42.35;38.60;;;8.00;96.20;;;;;;5049277;28;20226;-70
2021/10/09 01:50:35;;;;;;;42.40;38.70;;;8.00;96.00;;;;;;5046739;28;20309;-71
2021/10/09 01:53:05;;;;;;;40.33;36.92;;;8.00;95.60;;;;;;5049339;28;20207;-70
2021/10/09 01:55:33;;;;;;;41.40;37.10;;;7.90;95.80;;;;;;5047518;28;20203;-70
2021/10/09 01:58:01;;;;;;;39.08;35.78;;;7.90;95.70;;;;;;5049297;28;20533;-70
2021/10/09 02:00:28;;;;;;;39.42;36.03;;;7.90;95.60;;;;;;5047854;28;20210;-70
2021/10/09 02:03:00;;;;;;;39.80;36.47;;;7.90;95.70;;;;;;5047478;28;20231;-70
2021/10/09 02:05:27;;;;;;;49.72;37.72;;;7.90;96.00;;;;;;5040660;28;20224;-70
2021/10/09 02:07:54;;;;;;;41.17;37.50;;;7.90;97.20;;;;;;5046504;28;20215;-70
2021/10/09 02:10:21;;;;;;;174.30;42.10;;;7.90;96.60;;;;;;5041380;28;20319;-70
2021/10/09 02:12:49;;;;;;;41.40;37.90;;;7.80;96.30;;;;;;5046578;28;20661;-70
2021/10/09 02:15:19;;;;;;;39.30;35.85;;;7.80;96.50;;;;;;5041814;28;20200;-71
2021/10/09 02:18:04;;;;;;;39.13;35.72;;;7.80;96.20;;;;;;5045443;28;20204;-70
2021/10/09 02:26:00;;;;;;;43.08;39.30;;;7.70;95.90;;;;;;5042257;28;20221;-70
2021/10/09 02:28:28;;;;;;;42.33;38.60;;;7.70;95.80;;;;;;5048540;28;20648;-70
2021/10/09 02:30:56;;;;;;;42.33;38.17;;;7.70;95.60;;;;;;5046414;28;20322;-70
2021/10/09 02:33:23;;;;;;;49.03;42.45;;;7.60;95.90;;;;;;5048547;28;20282;-70
2021/10/09 02:35:50;;;;;;;42.95;39.03;;;7.70;96.80;;;;;;5047478;28;20202;-70
2021/10/09 02:38:17;;;;;;;204.35;161.65;;;7.60;96.20;;;;;;5048200;28;20198;-71
2021/10/09 02:40:45;;;;;;;77.85;64.25;;;7.60;95.90;;;;;;5046982;28;20698;-71
2021/10/09 02:43:15;;;;;;;162.40;86.05;;;7.60;95.80;;;;;;5048259;28;20203;-71
2021/10/09 02:45:43;;;;;;;117.88;71.65;;;7.60;95.70;;;;;;5037399;28;20582;-70
2021/10/09 02:48:11;;;;;;;95.70;72.10;;;7.60;95.70;;;;;;5047875;28;20545;-71
2021/10/09 02:50:38;;;;;;;58.92;52.70;;;7.60;95.90;;;;;;5047189;28;20313;-70
2021/10/09 02:53:04;;;;;;;50.67;45.67;;;7.50;95.60;;;;;;5039674;28;20204;-70
2021/10/09 02:55:31;;;;;;;60.25;52.78;;;7.50;95.30;;;;;;5042777;28;20666;-70
2021/10/09 02:57:58;;;;;;;55.10;49.42;;;7.50;95.40;;;;;;5044554;28;20202;-70
2021/10/09 03:00:25;;;;;;;61.72;51.90;;;7.50;95.40;;;;;;5047429;28;20680;-71
2021/10/09 03:02:54;;;;;;;51.72;46.35;;;7.40;95.20;;;;;;5049885;28;20206;-70
2021/10/09 03:05:21;;;;;;;44.85;40.65;;;7.40;95.40;;;;;;5051561;28;20665;-71
2021/10/09 03:07:48;;;;;;;42.22;38.33;;;7.40;95.40;;;;;;5052431;28;20227;-70
2021/10/09 03:10:15;;;;;;;41.40;37.70;;;7.40;95.10;;;;;;5051221;28;20223;-70
2021/10/09 03:12:42;;;;;;;42.58;38.50;;;7.40;95.10;;;;;;5051553;28;20199;-70
2021/10/09 03:15:11;;;;;;;42.53;38.88;;;7.30;95.20;;;;;;5046263;28;20197;-71
2021/10/09 03:17:39;;;;;;;41.70;38.00;;;7.30;95.80;;;;;;5048453;28;20201;-71
2021/10/09 03:20:10;;;;;;;156.18;49.15;;;7.30;95.70;;;;;;5037517;28;20195;-71
2021/10/09 03:22:37;;;;;;;42.78;38.70;;;7.30;96.20;;;;;;5050690;28;20202;-71
2021/10/09 03:25:04;;;;;;;41.85;38.08;;;7.30;96.60;;;;;;5037880;28;20210;-71
2021/10/09 03:27:31;;;;;;;39.67;36.38;;;7.30;96.10;;;;;;5051560;28;20221;-71
2021/10/09 03:29:59;;;;;;;41.08;37.58;;;7.30;95.90;;;;;;5046957;28;20197;-71
2021/10/09 03:32:26;;;;;;;42.80;39.10;;;7.20;95.40;;;;;;5047122;28;20195;-70
2021/10/09 03:34:52;;;;;;;41.10;37.28;;;7.30;95.40;;;;;;5050345;28;20204;-70
2021/10/09 03:37:21;;;;;;;42.35;38.65;;;7.20;95.20;;;;;;5051949;28;20574;-70
2021/10/09 03:39:49;;;;;;;905.00;124.35;;;7.20;95.70;;;;;;5047640;28;20219;-70
2021/10/09 03:42:20;;;;;;;41.13;37.38;;;7.20;96.00;;;;;;5045277;28;20217;-70
2021/10/09 03:44:50;;;;;;;40.10;36.78;;;7.10;96.00;;;;;;5046611;28;20205;-70
2021/10/09 03:47:21;;;;;;;462.65;88.70;;;7.10;95.70;;;;;;5051737;28;20244;-70
2021/10/09 03:49:52;;;;;;;40.80;37.30;;;7.10;95.90;;;;;;5048988;28;20208;-70
2021/10/09 03:52:35;;;;;;;41.15;37.53;;;7.10;96.00;;;;;;5050065;28;20197;-70
2021/10/09 03:55:03;;;;;;;39.72;36.40;;;7.10;96.00;;;;;;5042707;28;20197;-70
2021/10/09 03:57:30;;;;;;;39.95;36.40;;;7.10;95.70;;;;;;5051488;28;20705;-70
2021/10/09 03:59:57;;;;;;;40.38;36.58;;;7.10;95.40;;;;;;5046986;28;20726;-70
2021/10/09 04:02:24;;;;;;;41.47;37.83;;;7.00;95.50;;;;;;5045843;28;20742;-70
2021/10/09 04:04:51;;;;;;;40.88;37.20;;;7.00;95.40;;;;;;5049584;28;20197;-70
2021/10/09 04:07:17;;;;;;;38.80;35.42;;;7.00;95.20;;;;;;5050778;28;20758;-70
2021/10/09 04:09:46;;;;;;;38.90;35.50;;;7.00;96.00;;;;;;5045908;28;20208;-68
2021/10/09 04:12:13;;;;;;;39.97;36.55;;;7.00;96.00;;;;;;5043950;28;20582;-70
2021/10/09 04:14:40;;;;;;;42.03;38.40;;;6.90;95.60;;;;;;5048917;28;20664;-71
2021/10/09 04:17:07;;;;;;;40.85;37.35;;;6.90;95.60;;;;;;5040203;28;20298;-71
2021/10/09 04:19:34;;;;;;;40.13;36.67;;;6.90;95.40;;;;;;5048928;28;20581;-70
2021/10/09 04:22:01;;;;;;;42.15;38.47;;;6.90;95.30;;;;;;5047479;28;20225;-71
2021/10/09 04:24:28;;;;;;;39.05;35.80;;;6.90;95.20;;;;;;5047881;28;20574;-70
2021/10/09 04:26:56;;;;;;;43.63;38.92;;;6.90;95.20;;;;;;5050596;28;20200;-70
2021/10/09 04:29:23;;;;;;;37.85;34.67;;;6.80;95.20;;;;;;5049561;28;20223;-71
2021/10/09 04:31:50;;;;;;;42.22;38.30;;;6.80;95.40;;;;;;5049190;28;20690;-71
2021/10/09 04:34:18;;;;;;;39.63;36.22;;;6.80;97.10;;;;;;5050568;28;20189;-70
2021/10/09 04:36:45;;;;;;;40.72;37.22;;;6.80;96.50;;;;;;5047195;28;20281;-71
2021/10/09 04:39:12;;;;;;;39.70;36.45;;;6.80;96.30;;;;;;5050052;28;20205;-71
2021/10/09 04:41:39;;;;;;;40.40;36.80;;;6.80;95.90;;;;;;5043575;28;20293;-71
2021/10/09 04:44:08;;;;;;;41.00;37.40;;;6.80;95.80;;;;;;5043435;28;20548;-70
2021/10/09 04:46:35;;;;;;;40.05;36.40;;;6.80;95.40;;;;;;5048431;28;20196;-71
2021/10/09 04:49:02;;;;;;;42.10;38.13;;;6.80;95.20;;;;;;5047697;28;20303;-71
2021/10/09 04:51:29;;;;;;;39.92;36.42;;;6.80;95.20;;;;;;5042803;28;20209;-71
2021/10/09 04:53:56;;;;;;;40.30;36.97;;;6.70;95.40;;;;;;5050070;28;20203;-71
2021/10/09 04:56:23;;;;;;;40.55;36.85;;;6.70;95.30;;;;;;5046929;28;20196;-71
2021/10/09 04:58:49;;;;;;;166.00;47.35;;;6.70;96.10;;;;;;5049102;28;20202;-71
2021/10/09 05:01:18;;;;;;;231.70;59.35;;;6.70;96.10;;;;;;5048038;28;20225;-71
2021/10/09 05:03:45;;;;;;;41.47;37.88;;;6.70;96.40;;;;;;5049676;28;20255;-71
2021/10/09 05:06:12;;;;;;;40.25;36.65;;;6.70;99.30;;;;;;5048120;28;20283;-71
2021/10/09 05:08:39;;;;;;;41.08;37.28;;;6.80;97.90;;;;;;5049653;28;20224;-71
2021/10/09 05:11:05;;;;;;;40.03;36.65;;;6.70;97.10;;;;;;5048485;28;20217;-71
2021/10/09 05:13:32;;;;;;;37.92;34.83;;;6.70;96.60;;;;;;5049464;28;20271;-71
2021/10/09 05:15:59;;;;;;;41.22;37.58;;;6.70;96.40;;;;;;5046650;28;20202;-71
2021/10/09 05:18:28;;;;;;;114.55;40.47;;;6.60;96.50;;;;;;5049638;28;20199;-70
2021/10/09 05:20:54;;;;;;;41.53;38.03;;;6.60;96.60;;;;;;5046193;28;20223;-70
2021/10/09 05:23:21;;;;;;;39.55;36.20;;;6.60;96.50;;;;;;5049335;28;20207;-70
2021/10/09 05:25:49;;;;;;;40.20;36.75;;;6.60;95.90;;;;;;5047086;28;20210;-70
2021/10/09 05:28:18;;;;;;;43.08;39.45;;;6.60;96.00;;;;;;5049260;28;20728;-70
2021/10/09 05:30:48;;;;;;;40.22;36.90;;;6.60;96.00;;;;;;5046130;28;20216;-70
2021/10/09 05:33:24;;;;;;;41.97;38.30;;;6.60;95.90;;;;;;5048733;28;20209;-70
2021/10/09 05:35:52;;;;;;;39.45;36.20;;;6.60;95.90;;;;;;5046874;28;20196;-70
2021/10/09 05:38:19;;;;;;;40.40;36.70;;;6.60;95.70;;;;;;5050398;28;20197;-70
2021/10/09 05:40:47;;;;;;;40.10;36.67;;;6.60;95.50;;;;;;5038396;28;20603;-70
2021/10/09 05:43:14;;;;;;;42.20;35.83;;;6.60;95.30;;;;;;5047300;28;20200;-70
2021/10/09 05:45:41;;;;;;;40.35;36.95;;;6.60;95.40;;;;;;5041926;28;20288;-70
2021/10/09 05:48:09;;;;;;;104.70;42.83;;;6.60;95.60;;;;;;5049218;28;20212;-70
2021/10/09 05:50:43;;;;;;;40.53;36.35;;;6.70;96.60;;;;;;5046380;28;20244;-70
2021/10/09 05:53:16;;;;;;;314.00;70.95;;;6.70;96.70;;;;;;5049009;28;20198;-71
2021/10/09 05:55:52;;;;;;;43.60;39.70;;;6.70;98.30;;;;;;5048149;28;20745;-71
2021/10/09 05:58:23;;;;;;;41.00;37.53;;;6.70;97.00;;;;;;5048792;28;20734;-71
2021/10/09 06:01:04;;;;;;;40.63;37.22;;;6.80;96.50;;;;;;5037169;28;20467;-70
2021/10/09 06:48:08;;;;;;;37.75;34.70;;;7.80;92.90;;;;;;5044797;28;20652;-71
2021/10/09 07:01:39;;;;;;;40.55;37.25;;;8.20;91.90;;;;;;5043743;28;20234;-71
2021/10/09 07:04:06;;;;;;;45.15;40.67;;;8.30;91.90;;;;;;5051313;28;20287;-71
2021/10/09 07:06:32;;;;;;;40.00;36.42;;;8.40;92.20;;;;;;5047557;28;20608;-71
2021/10/09 07:08:59;;;;;;;38.63;35.28;;;8.40;92.20;;;;;;5051316;28;20302;-71
2021/10/09 07:11:26;;;;;;;38.97;35.35;;;8.60;92.10;;;;;;5050381;28;20516;-71
2021/10/09 07:13:54;;;;;;;38.65;35.20;;;8.70;91.90;;;;;;5050560;28;20204;-71
2021/10/09 07:16:21;;;;;;;40.03;36.65;;;8.80;91.70;;;;;;5050098;28;20576;-71
2021/10/09 07:18:48;;;;;;;41.17;37.83;;;8.90;91.60;;;;;;5051797;28;20203;-71
2021/10/09 07:21:15;;;;;;;39.60;36.20;;;9.00;91.50;;;;;;5049090;28;20710;-72
2021/10/09 07:23:42;;;;;;;41.20;37.42;;;9.10;91.30;;;;;;5045995;28;20228;-70
2021/10/09 07:26:10;;;;;;;40.10;36.38;;;9.10;91.30;;;;;;5044935;28;20324;-70
2021/10/09 07:28:37;;;;;;;38.60;35.45;;;9.30;91.00;;;;;;5051482;28;20216;-71
2021/10/09 07:31:05;;;;;;;42.55;38.47;;;9.30;90.70;;;;;;5048396;28;20216;-70
2021/10/09 07:33:32;;;;;;;37.97;34.50;;;9.40;90.50;;;;;;5045358;28;20224;-70
2021/10/09 07:35:59;;;;;;;38.63;35.10;;;9.50;90.40;;;;;;5049942;28;20459;-70
2021/10/09 07:38:26;;;;;;;39.53;35.70;;;9.60;90.00;;;;;;5051123;28;20472;-70
2021/10/09 07:40:53;;;;;;;39.35;35.88;;;9.70;89.90;;;;;;5042729;28;20475;-70
2021/10/09 07:43:21;;;;;;;42.47;38.17;;;9.80;89.60;;;;;;5050801;28;20205;-70
2021/10/09 07:45:48;;;;;;;40.00;36.67;;;9.90;89.40;;;;;;5039311;28;20451;-70
2021/10/09 07:48:16;;;;;;;41.60;38.20;;;10.00;90.60;;;;;;5039532;28;20470;-70
2021/10/09 07:50:43;;;;;;;41.07;37.57;;;9.90;89.20;;;;;;5045947;28;20479;-70
2021/10/09 07:53:11;;;;;;;39.63;36.43;;;10.10;89.00;;;;;;5041099;28;20876;-70
2021/10/09 07:55:38;;;;;;;39.43;36.13;;;10.20;88.90;;;;;;5048575;28;20837;-70
2021/10/09 07:58:04;;;;;;;41.37;36.97;;;10.30;87.80;;;;;;5040450;28;20467;-70
2021/10/09 08:00:31;;;;;;;40.90;37.17;;;10.40;87.60;;;;;;5041904;28;20482;-70
2021/10/09 08:03:03;;;;;;;41.87;38.50;;;10.40;87.50;;;;;;5046725;28;20565;-70
2021/10/09 08:05:34;;;;;;;40.43;36.83;;;10.50;88.40;;;;;;5041087;28;20463;-70
2021/10/09 08:08:01;;;;;;;38.17;34.97;;;10.60;86.60;;;;;;5050293;28;20992;-70
2021/10/09 08:10:28;;;;;;;39.37;36.10;;;10.70;86.30;;;;;;5047057;28;20910;-70
2021/10/09 08:12:55;;;;;;;40.07;36.90;;;10.70;86.30;;;;;;5044747;28;20541;-73
2021/10/09 08:15:22;;;;;;;40.10;36.83;;;10.80;85.30;;;;;;5043169;28;20550;-73
2021/10/09 08:17:49;;;;;;;41.77;38.27;;;10.90;85.10;;;;;;5045571;28;21032;-73
2021/10/09 08:20:16;;;;;;;38.90;35.93;;;10.90;85.00;;;;;;5049712;28;20471;-72
2021/10/09 08:22:56;;;;;;;39.83;36.33;;;11.00;84.40;;;;;;5048567;28;20455;-70
2021/10/09 08:36:29;;;;;;;40.13;36.77;;;11.10;84.30;;;;;;5038282;28;20462;-70
2021/10/09 08:38:57;;;;;;;40.13;36.67;;;11.30;84.20;;;;;;5037931;28;20463;-70
2021/10/09 08:41:24;;;;;;;39.70;36.00;;;11.50;83.00;;;;;;5044349;28;20562;-71
2021/10/09 08:43:53;;;;;;;40.23;36.93;;;11.40;83.10;;;;;;5046196;28;20444;-70
2021/10/09 08:46:21;;;;;;;38.87;35.80;;;11.40;83.50;;;;;;5048332;28;21032;-70
2021/10/09 08:48:50;;;;;;;38.67;35.77;;;11.40;83.20;;;;;;5043523;28;20456;-70
2021/10/09 08:51:21;;;;;;;39.07;35.57;;;11.50;83.20;;;;;;5045512;28;21026;-70
2021/10/09 08:53:48;;;;;;;40.27;37.17;;;11.50;83.30;;;;;;5048841;28;20453;-70
2021/10/09 08:56:32;;;;;;;40.23;36.43;;;11.70;83.20;;;;;;5045504;28;20446;-71
2021/10/09 08:59:11;;;;;;;39.47;36.20;;;11.90;81.90;;;;;;5042651;28;20554;-70
2021/10/09 09:01:48;;;;;;;41.87;38.37;;;11.80;82.00;;;;;;5037886;28;20498;-70
2021/10/09 09:04:35;;;;;;;39.07;35.80;;;11.90;82.20;;;;;;5038960;28;20460;-70
2021/10/09 09:07:24;;;;;;;38.60;35.70;;;12.00;81.40;;;;;;5042653;28;20459;-70
2021/10/09 09:27:07;;;;;;;40.00;36.90;;;12.50;79.70;;;;;;5040959;28;20516;-70
2021/10/09 09:40:38;;;;;;;39.87;36.40;;;12.90;78.20;;;;;;5044768;28;20513;-70
2021/10/09 09:43:07;;;;;;;37.53;34.70;;;12.90;78.10;;;;;;5041866;28;20462;-70
2021/10/09 09:45:37;;;;;;;42.00;38.33;;;12.80;78.70;;;;;;5045136;28;20460;-71
2021/10/09 09:48:05;;;;;;;40.53;37.43;;;12.90;78.20;;;;;;5040505;28;20463;-70
2021/10/09 09:50:34;;;;;;;40.97;37.23;;;12.80;78.60;;;;;;5036721;28;20485;-70
2021/10/09 09:53:02;;;;;;;40.40;37.20;;;12.90;78.10;;;;;;5041757;28;20516;-71
2021/10/09 09:55:30;;;;;;;39.73;36.63;;;12.90;77.90;;;;;;5046225;28;20462;-70
2021/10/09 09:57:59;;;;;;;39.93;36.53;;;13.00;78.00;;;;;;5047388;28;20447;-69
2021/10/09 10:00:28;;;;;;;39.17;35.87;;;13.20;78.00;;;;;;5046712;28;20477;-70
2021/10/09 10:02:57;;;;;;;40.07;37.03;;;13.10;77.90;;;;;;5046306;28;20455;-70
2021/10/09 10:05:28;;;;;;;39.37;36.33;;;13.30;78.10;;;;;;5036031;28;20486;-70
2021/10/09 10:07:55;;;;;;;39.73;36.53;;;13.50;77.60;;;;;;5046824;28;20483;-70
2021/10/09 10:10:23;;;;;;;39.97;36.70;;;13.60;76.60;;;;;;5040518;28;20602;-70
2021/10/09 10:12:55;;;;;;;40.80;37.70;;;13.80;75.50;;;;;;5042897;28;20557;-70
2021/10/09 10:15:28;;;;;;;41.30;37.90;;;13.90;75.20;;;;;;5030019;28;20459;-70
2021/10/09 10:17:56;;;;;;;40.77;37.60;;;14.00;74.60;;;;;;5044694;28;20857;-70
2021/10/09 10:20:25;;;;;;;42.47;39.03;;;14.00;74.50;;;;;;5031252;28;20467;-70
2021/10/09 10:22:57;;;;;;;40.50;37.07;;;14.10;73.80;;;;;;5043989;28;20459;-70
2021/10/09 10:25:40;;;;;;;41.97;38.30;;;14.00;73.80;;;;;;5039753;28;20555;-70
2021/10/09 10:28:13;;;;;;;38.23;35.23;;;14.00;73.60;;;;;;5046424;28;20458;-70
2021/10/09 10:30:42;;;;;;;39.17;35.57;;;14.10;73.60;;;;;;5046144;28;20515;-70
2021/10/09 10:33:30;;;;;;;40.83;37.27;;;14.20;73.80;;;;;;5047217;28;20949;-70
2021/10/09 10:35:57;;;;;;;39.43;36.40;;;14.30;73.70;;;;;;5035838;28;21000;-70
2021/10/09 10:38:48;;;;;;;38.10;35.10;;;14.30;72.10;;;;;;5048197;28;20458;-70
2021/10/09 10:41:21;;;;;;;37.07;34.00;;;14.50;72.00;;;;;;5044881;28;20498;-70
2021/10/09 10:43:51;;;;;;;37.47;34.40;;;14.70;71.30;;;;;;5043040;28;20518;-70
2021/10/09 10:46:41;;;;;;;39.20;36.10;;;14.80;70.60;;;;;;5033394;28;20465;-70
2021/10/09 10:49:15;;;;;;;37.90;34.90;;;14.90;68.80;;;;;;5038287;28;20505;-70
2021/10/09 10:51:54;;;;;;;35.27;32.53;;;14.90;68.70;;;;;;5037216;28;20540;-70
2021/10/09 10:54:29;;;;;;;36.07;33.57;;;14.90;70.70;;;;;;5045562;28;20570;-70
2021/10/09 10:57:15;;;;;;;35.20;32.60;;;15.00;69.70;;;;;;5046545;28;20959;-70
2021/10/09 10:59:45;;;;;;;35.83;33.00;;;15.00;68.60;;;;;;5033601;28;20488;-70
2021/10/09 11:02:15;;;;;;;36.83;34.00;;;15.10;68.50;;;;;;5042764;28;20470;-70
2021/10/09 11:04:44;;;;;;;36.60;33.50;;;15.30;68.50;;;;;;5045692;28;20927;-70
2021/10/09 11:07:12;;;;;;;36.67;33.57;;;15.30;66.90;;;;;;5039596;28;20546;-70
2021/10/09 11:09:39;;;;;;;34.60;32.20;;;15.30;66.50;;;;;;5036015;28;20486;-70
2021/10/09 11:12:23;;;;;;;37.67;34.90;;;15.40;65.20;;;;;;5038953;28;20942;-70
2021/10/09 11:14:50;;;;;;;36.00;33.40;;;15.30;64.80;;;;;;5042628;28;20451;-70
2021/10/09 11:17:18;;;;;;;35.57;32.57;;;15.20;65.70;;;;;;5047520;28;20469;-70
2021/10/09 11:19:48;;;;;;;35.43;32.87;;;15.40;65.40;;;;;;5032800;28;20534;-72
2021/10/09 11:22:17;;;;;;;34.93;32.43;;;15.30;64.80;;;;;;5037466;28;20485;-74
2021/10/09 11:24:45;;;;;;;35.23;32.53;;;15.50;64.00;;;;;;5044020;28;20547;-73
2021/10/09 11:27:14;;;;;;;34.20;31.80;;;15.60;64.00;;;;;;5044546;28;20463;-74
2021/10/09 11:29:42;;;;;;;35.03;32.50;;;15.70;64.20;;;;;;5046006;28;20482;-76
2021/10/09 11:32:10;;;;;;;35.27;32.73;;;15.80;64.40;;;;;;5050049;28;20478;-74
2021/10/09 11:34:57;;;;;;;34.80;32.30;;;15.80;64.50;;;;;;5046798;28;20474;-73
2021/10/09 11:37:25;;;;;;;35.57;33.07;;;15.80;64.00;;;;;;5049038;28;20454;-73
2021/10/09 11:39:53;;;;;;;36.97;34.27;;;15.70;64.80;;;;;;5046387;28;22412;-71
2021/10/09 11:42:22;;;;;;;33.43;31.07;;;15.90;63.90;;;;;;5052492;28;21060;-71
2021/10/09 11:45:08;;;;;;;38.83;35.70;;;15.90;63.40;;;;;;5046457;28;20509;-72
2021/10/09 11:53:39;;;;;;;36.10;33.60;;;16.30;62.20;;;;;;5050896;28;20672;-71
2021/10/09 11:56:09;;;;;;;36.47;33.77;;;16.50;61.70;;;;;;5049205;28;20487;-71
2021/10/09 11:58:47;;;;;;;36.03;33.43;;;16.30;62.50;;;;;;5043081;28;20836;-71
2021/10/09 12:01:32;;;;;;;35.53;32.93;;;16.20;63.30;;;;;;5035713;28;20563;-71
2021/10/09 12:04:13;;;;;;;36.90;34.17;;;16.30;63.30;;;;;;5038881;28;20537;-71
2021/10/09 12:06:44;;;;;;;34.03;31.43;;;16.60;62.10;;;;;;5048720;28;20470;-71
2021/10/09 12:09:13;;;;;;;35.17;32.60;;;16.60;62.10;;;;;;5049323;28;20458;-71
2021/10/09 12:11:41;;;;;;;37.17;33.97;;;16.60;62.90;;;;;;5048313;28;20565;-71
2021/10/09 12:14:09;;;;;;;36.50;33.70;;;16.70;62.00;;;;;;5050999;28;20550;-71
2021/10/09 12:16:38;;;;;;;36.23;33.33;;;16.80;61.60;;;;;;5046172;28;20540;-71
2021/10/09 12:19:06;;;;;;;37.17;34.33;;;16.80;61.30;;;;;;5042678;28;20535;-71
2021/10/09 12:21:36;;;;;;;35.27;32.80;;;16.70;61.60;;;;;;5049310;28;20497;-71
2021/10/09 12:24:15;;;;;;;34.97;32.23;;;16.80;61.20;;;;;;5047237;28;20463;-72
2021/10/09 12:26:42;;;;;;;35.60;33.10;;;16.80;60.90;;;;;;5044802;28;20463;-71
2021/10/09 12:29:17;;;;;;;37.20;33.90;;;16.60;61.50;;;;;;5049302;28;20966;-72
2021/10/09 12:31:45;;;;;;;35.07;32.57;;;16.60;62.10;;;;;;5049169;28;20483;-72
2021/10/09 12:34:29;;;;;;;37.13;34.10;;;16.60;63.50;;;;;;5045031;28;20546;-71
2021/10/09 12:37:22;;;;;;;35.17;32.47;;;16.80;63.40;;;;;;5047380;28;20455;-72
2021/10/09 12:40:08;;;;;;;36.80;34.10;;;16.90;61.50;;;;;;5044655;28;20458;-72
2021/10/09 12:42:35;;;;;;;35.40;32.60;;;16.80;61.80;;;;;;5043630;28;20447;-71
2021/10/09 12:45:03;;;;;;;35.40;32.43;;;16.90;63.10;;;;;;5044060;28;20451;-71
2021/10/09 12:47:30;;;;;;;35.60;33.00;;;17.00;62.70;;;;;;5047593;28;20462;-71
2021/10/09 12:49:57;;;;;;;35.40;32.53;;;17.10;61.30;;;;;;5045862;28;20489;-71
2021/10/09 12:52:24;;;;;;;34.20;31.80;;;17.10;61.50;;;;;;5047221;28;20461;-71
2021/10/09 12:54:51;;;;;;;34.93;32.40;;;17.10;61.60;;;;;;5046862;28;20461;-71
2021/10/09 12:57:20;;;;;;;35.47;32.90;;;17.20;61.60;;;;;;5046122;28;20478;-71
2021/10/09 12:59:47;;;;;;;32.97;30.53;;;17.30;60.10;;;;;;5035759;28;20460;-72
2021/10/09 13:02:14;;;;;;;35.70;32.90;;;17.20;59.70;;;;;;5048018;28;20467;-72
2021/10/09 13:04:41;;;;;;;34.20;31.60;;;17.10;60.60;;;;;;5047684;28;20458;-72
2021/10/09 13:07:08;;;;;;;35.20;32.80;;;17.20;61.20;;;;;;5044241;28;20457;-71
2021/10/09 13:09:35;;;;;;;34.47;32.10;;;17.40;60.90;;;;;;5044311;28;20463;-73
2021/10/09 13:12:04;;;;;;;34.57;32.00;;;17.20;60.30;;;;;;5046420;28;20988;-73
2021/10/09 13:14:32;;;;;;;35.17;32.23;;;17.20;60.30;;;;;;5047779;28;20454;-73
2021/10/09 13:16:59;;;;;;;34.77;32.40;;;17.10;60.30;;;;;;5049948;28;20461;-73
2021/10/09 13:19:26;;;;;;;35.73;33.23;;;17.10;60.70;;;;;;5045904;28;20490;-72
2021/10/09 13:22:10;;;;;;;36.80;34.10;;;17.00;61.10;;;;;;5035065;28;20497;-71
2021/10/09 13:24:37;;;;;;;34.40;31.50;;;17.10;60.50;;;;;;5035039;28;20463;-71
2021/10/09 13:27:06;;;;;;;34.40;31.93;;;17.00;61.20;;;;;;5039567;28;20466;-70
2021/10/09 13:29:34;;;;;;;36.60;33.67;;;17.10;61.20;;;;;;5047430;28;20447;-72
2021/10/09 13:32:01;;;;;;;35.07;32.63;;;17.10;60.30;;;;;;5049437;28;20485;-71
2021/10/09 13:34:29;;;;;;;34.47;32.10;;;17.10;60.30;;;;;;5046842;28;20490;-72
2021/10/09 13:36:56;;;;;;;35.00;32.70;;;17.20;60.70;;;;;;5044340;28;20469;-72
2021/10/09 13:39:23;;;;;;;35.30;33.03;;;17.20;60.30;;;;;;5038607;28;20482;-72
2021/10/09 13:41:50;;;;;;;34.53;32.13;;;17.30;59.50;;;;;;5046939;28;20471;-72
2021/10/09 13:44:17;;;;;;;34.40;32.00;;;17.20;60.00;;;;;;5045884;28;20455;-72
2021/10/09 13:46:46;;;;;;;34.43;31.90;;;17.20;60.30;;;;;;5042632;28;20546;-72
2021/10/09 13:49:13;;;;;;;36.90;34.00;;;17.20;61.20;;;;;;5038219;28;20486;-71
2021/10/09 13:51:40;;;;;;;34.97;32.40;;;17.20;59.60;;;;;;5044837;28;20565;-71
2021/10/09 13:54:07;;;;;;;34.33;31.93;;;17.20;59.80;;;;;;5049206;28;20482;-75
2021/10/09 13:56:34;;;;;;;36.63;33.57;;;17.10;60.00;;;;;;5041043;28;20470;-71
2021/10/09 13:59:01;;;;;;;34.57;32.07;;;17.00;60.00;;;;;;5044975;28;20469;-71
2021/10/09 14:01:28;;;;;;;32.93;30.83;;;17.10;59.60;;;;;;5047270;28;20482;-71
2021/10/09 14:03:56;;;;;;;34.57;32.10;;;17.10;59.60;;;;;;5045654;28;20466;-71
2021/10/09 14:06:23;;;;;;;34.47;31.97;;;17.20;59.80;;;;;;5044784;28;20467;-71
2021/10/09 14:08:51;;;;;;;33.77;31.27;;;17.20;59.90;;;;;;5046577;28;20455;-71
2021/10/09 14:11:20;;;;;;;32.90;30.53;;;17.20;59.70;;;;;;5034184;28;20828;-71
2021/10/09 14:13:46;;;;;;;33.40;31.10;;;17.20;60.00;;;;;;5036367;28;20454;-71
2021/10/09 14:16:13;;;;;;;34.27;32.07;;;17.40;59.50;;;;;;5047201;28;20465;-71
2021/10/09 14:18:40;;;;;;;35.00;32.37;;;17.30;59.40;;;;;;5047490;28;20535;-71
2021/10/09 14:21:08;;;;;;;32.43;30.30;;;17.30;59.20;;;;;;5039984;28;20565;-71
2021/10/09 14:23:35;;;;;;;33.23;31.10;;;17.30;59.40;;;;;;5048359;28;20738;-71
2021/10/09 14:26:02;;;;;;;33.43;31.07;;;17.20;59.20;;;;;;5034000;28;20960;-71
2021/10/09 14:28:29;;;;;;;33.70;31.30;;;17.20;59.20;;;;;;5047935;28;20451;-71